sensor_id;sensor_type;location;lat;lon;timestamp;P1;durP1;ratioP1;P2;durP2;ratioP2
22234;SDS011;11286;45.596;5.284;2023-02-01T00:02:23;15.10;;;9.73;;
22234;SDS011;11286;45.596;5.284;2023-02-01T00:04:48;14.63;;;10.00;;
22234;SDS011;11286;45.596;5.284;2023-02-01T00:07:14;14.43;;;9.45;;
22234;SDS011;11286;45.596;5.284;2023-02-01T00:09:40;18.00;;;11.10;;
22234;SDS011;11286;45.596;5.284;2023-02-01T00:12:05;21.85;;;11.85;;
22234;SDS011;11286;45.596;5.284;2023-02-01T00:14:31;24.45;;;12.07;;
22234;SDS011;11286;45.596;5.284;2023-02-01T00:17:03;21.33;;;12.13;;
22234;SDS011;11286;45.596;5.284;2023-02-01T00:19:29;20.08;;;11.57;;
22234;SDS011;11286;45.596;5.284;2023-02-01T00:21:55;21.17;;;12.00;;
22234;SDS011;11286;45.596;5.284;2023-02-01T00:24:21;23.58;;;12.75;;
22234;SDS011;11286;45.596;5.284;2023-02-01T00:26:46;22.08;;;12.23;;
22234;SDS011;11286;45.596;5.284;2023-02-01T00:29:17;20.88;;;12.65;;
22234;SDS011;11286;45.596;5.284;2023-02-01T00:31:44;87.47;;;37.60;;
22234;SDS011;11286;45.596;5.284;2023-02-01T00:34:14;94.38;;;38.90;;
22234;SDS011;11286;45.596;5.284;2023-02-01T00:36:41;67.60;;;30.95;;
22234;SDS011;11286;45.596;5.284;2023-02-01T00:39:08;48.25;;;22.23;;
22234;SDS011;11286;45.596;5.284;2023-02-01T00:41:34;28.95;;;15.77;;
22234;SDS011;11286;45.596;5.284;2023-02-01T00:44:00;20.08;;;12.43;;
22234;SDS011;11286;45.596;5.284;2023-02-01T00:46:26;19.98;;;12.23;;
22234;SDS011;11286;45.596;5.284;2023-02-01T00:48:52;17.08;;;10.80;;
22234;SDS011;11286;45.596;5.284;2023-02-01T00:51:19;15.38;;;10.25;;
22234;SDS011;11286;45.596;5.284;2023-02-01T00:53:47;15.07;;;10.25;;
22234;SDS011;11286;45.596;5.284;2023-02-01T00:56:13;16.45;;;10.80;;
22234;SDS011;11286;45.596;5.284;2023-02-01T00:58:39;13.85;;;10.27;;
22234;SDS011;11286;45.596;5.284;2023-02-01T01:03:37;18.30;;;9.75;;
22234;SDS011;11286;45.596;5.284;2023-02-01T01:06:06;13.48;;;9.70;;
22234;SDS011;11286;45.596;5.284;2023-02-01T01:08:34;14.93;;;10.07;;
22234;SDS011;11286;45.596;5.284;2023-02-01T01:11:07;16.45;;;11.50;;
22234;SDS011;11286;45.596;5.284;2023-02-01T01:13:41;20.27;;;13.02;;
22234;SDS011;11286;45.596;5.284;2023-02-01T01:16:07;15.95;;;11.25;;
22234;SDS011;11286;45.596;5.284;2023-02-01T01:18:35;18.30;;;11.80;;
22234;SDS011;11286;45.596;5.284;2023-02-01T01:21:01;18.63;;;11.48;;
22234;SDS011;11286;45.596;5.284;2023-02-01T01:23:28;19.55;;;12.73;;
22234;SDS011;11286;45.596;5.284;2023-02-01T01:25:54;16.25;;;11.20;;
22234;SDS011;11286;45.596;5.284;2023-02-01T01:28:20;18.75;;;11.25;;
22234;SDS011;11286;45.596;5.284;2023-02-01T01:30:46;20.80;;;12.82;;
22234;SDS011;11286;45.596;5.284;2023-02-01T01:33:12;22.17;;;12.57;;
22234;SDS011;11286;45.596;5.284;2023-02-01T01:35:38;22.27;;;12.23;;
22234;SDS011;11286;45.596;5.284;2023-02-01T01:38:03;23.88;;;12.60;;
22234;SDS011;11286;45.596;5.284;2023-02-01T01:40:29;16.65;;;10.82;;
22234;SDS011;11286;45.596;5.284;2023-02-01T01:42:56;19.90;;;11.50;;
22234;SDS011;11286;45.596;5.284;2023-02-01T01:45:29;15.30;;;10.57;;
22234;SDS011;11286;45.596;5.284;2023-02-01T01:48:07;17.83;;;10.30;;
22234;SDS011;11286;45.596;5.284;2023-02-01T01:50:40;15.18;;;9.98;;
22234;SDS011;11286;45.596;5.284;2023-02-01T01:53:16;17.80;;;11.30;;
22234;SDS011;11286;45.596;5.284;2023-02-01T01:55:45;17.70;;;10.80;;
22234;SDS011;11286;45.596;5.284;2023-02-01T01:58:16;21.60;;;12.50;;
22234;SDS011;11286;45.596;5.284;2023-02-01T02:00:44;18.52;;;12.10;;
22234;SDS011;11286;45.596;5.284;2023-02-01T02:05:40;17.20;;;12.13;;
22234;SDS011;11286;45.596;5.284;2023-02-01T02:08:06;20.67;;;13.35;;
22234;SDS011;11286;45.596;5.284;2023-02-01T02:10:31;18.70;;;13.25;;
22234;SDS011;11286;45.596;5.284;2023-02-01T02:13:16;16.85;;;11.80;;
22234;SDS011;11286;45.596;5.284;2023-02-01T02:15:57;16.27;;;11.30;;
22234;SDS011;11286;45.596;5.284;2023-02-01T02:21:48;16.15;;;11.43;;
22234;SDS011;11286;45.596;5.284;2023-02-01T02:36:05;18.17;;;11.27;;
22234;SDS011;11286;45.596;5.284;2023-02-01T02:41:19;13.95;;;10.48;;
22234;SDS011;11286;45.596;5.284;2023-02-01T02:44:14;17.63;;;11.57;;
22234;SDS011;11286;45.596;5.284;2023-02-01T02:47:14;16.40;;;10.95;;
22234;SDS011;11286;45.596;5.284;2023-02-01T02:53:15;15.30;;;11.23;;
22234;SDS011;11286;45.596;5.284;2023-02-01T02:56:03;18.13;;;12.60;;
22234;SDS011;11286;45.596;5.284;2023-02-01T02:58:50;12.95;;;9.48;;
22234;SDS011;11286;45.596;5.284;2023-02-01T03:01:36;14.38;;;9.48;;
22234;SDS011;11286;45.596;5.284;2023-02-01T03:04:22;13.75;;;10.15;;
22234;SDS011;11286;45.596;5.284;2023-02-01T03:06:48;13.70;;;10.35;;
22234;SDS011;11286;45.596;5.284;2023-02-01T03:09:34;11.95;;;8.98;;
22234;SDS011;11286;45.596;5.284;2023-02-01T03:12:04;12.43;;;9.43;;
22234;SDS011;11286;45.596;5.284;2023-02-01T03:14:54;11.73;;;9.63;;
22234;SDS011;11286;45.596;5.284;2023-02-01T03:17:27;12.30;;;9.38;;
22234;SDS011;11286;45.596;5.284;2023-02-01T03:19:57;12.02;;;9.23;;
22234;SDS011;11286;45.596;5.284;2023-02-01T03:22:27;12.23;;;9.48;;
22234;SDS011;11286;45.596;5.284;2023-02-01T03:25:01;13.40;;;9.30;;
22234;SDS011;11286;45.596;5.284;2023-02-01T03:27:32;13.00;;;9.73;;
22234;SDS011;11286;45.596;5.284;2023-02-01T03:30:08;13.52;;;9.85;;
22234;SDS011;11286;45.596;5.284;2023-02-01T03:32:42;13.27;;;9.82;;
22234;SDS011;11286;45.596;5.284;2023-02-01T03:36:26;15.10;;;9.68;;
22234;SDS011;11286;45.596;5.284;2023-02-01T03:46:17;12.07;;;9.10;;
22234;SDS011;11286;45.596;5.284;2023-02-01T03:48:48;13.18;;;9.15;;
22234;SDS011;11286;45.596;5.284;2023-02-01T03:51:16;11.57;;;8.98;;
22234;SDS011;11286;45.596;5.284;2023-02-01T03:53:44;12.90;;;9.20;;
22234;SDS011;11286;45.596;5.284;2023-02-01T03:56:13;12.63;;;8.63;;
22234;SDS011;11286;45.596;5.284;2023-02-01T03:58:42;11.00;;;8.75;;
22234;SDS011;11286;45.596;5.284;2023-02-01T04:01:22;13.30;;;9.30;;
22234;SDS011;11286;45.596;5.284;2023-02-01T04:03:48;13.23;;;9.20;;
22234;SDS011;11286;45.596;5.284;2023-02-01T04:06:16;12.20;;;8.63;;
22234;SDS011;11286;45.596;5.284;2023-02-01T04:08:42;12.48;;;8.68;;
22234;SDS011;11286;45.596;5.284;2023-02-01T04:11:07;12.82;;;8.32;;
22234;SDS011;11286;45.596;5.284;2023-02-01T04:13:33;13.20;;;8.55;;
22234;SDS011;11286;45.596;5.284;2023-02-01T04:15:58;12.90;;;9.25;;
22234;SDS011;11286;45.596;5.284;2023-02-01T04:18:24;11.60;;;9.00;;
22234;SDS011;11286;45.596;5.284;2023-02-01T04:20:50;11.68;;;8.45;;
22234;SDS011;11286;45.596;5.284;2023-02-01T04:23:15;11.63;;;8.60;;
22234;SDS011;11286;45.596;5.284;2023-02-01T04:25:41;13.18;;;8.93;;
22234;SDS011;11286;45.596;5.284;2023-02-01T04:28:07;10.85;;;8.70;;
22234;SDS011;11286;45.596;5.284;2023-02-01T04:30:32;12.55;;;9.38;;
22234;SDS011;11286;45.596;5.284;2023-02-01T04:32:58;15.10;;;10.20;;
22234;SDS011;11286;45.596;5.284;2023-02-01T04:35:24;16.35;;;10.43;;
22234;SDS011;11286;45.596;5.284;2023-02-01T04:37:49;14.95;;;10.90;;
22234;SDS011;11286;45.596;5.284;2023-02-01T04:40:15;14.38;;;9.88;;
22234;SDS011;11286;45.596;5.284;2023-02-01T04:42:41;14.23;;;9.88;;
22234;SDS011;11286;45.596;5.284;2023-02-01T04:45:06;13.82;;;9.65;;
22234;SDS011;11286;45.596;5.284;2023-02-01T04:47:33;15.35;;;9.85;;
22234;SDS011;11286;45.596;5.284;2023-02-01T04:49:59;13.80;;;9.98;;
22234;SDS011;11286;45.596;5.284;2023-02-01T04:52:25;14.07;;;9.75;;
22234;SDS011;11286;45.596;5.284;2023-02-01T04:54:52;15.52;;;9.60;;
22234;SDS011;11286;45.596;5.284;2023-02-01T04:57:19;12.00;;;9.30;;
22234;SDS011;11286;45.596;5.284;2023-02-01T04:59:45;13.35;;;9.50;;
22234;SDS011;11286;45.596;5.284;2023-02-01T05:02:10;15.55;;;10.52;;
22234;SDS011;11286;45.596;5.284;2023-02-01T05:04:36;14.70;;;9.70;;
22234;SDS011;11286;45.596;5.284;2023-02-01T05:07:02;13.70;;;9.70;;
22234;SDS011;11286;45.596;5.284;2023-02-01T05:09:27;13.95;;;10.18;;
22234;SDS011;11286;45.596;5.284;2023-02-01T05:11:53;13.35;;;10.13;;
22234;SDS011;11286;45.596;5.284;2023-02-01T05:14:37;15.57;;;9.73;;
22234;SDS011;11286;45.596;5.284;2023-02-01T05:17:03;13.55;;;9.65;;
22234;SDS011;11286;45.596;5.284;2023-02-01T05:19:28;12.98;;;9.02;;
22234;SDS011;11286;45.596;5.284;2023-02-01T05:21:54;11.48;;;8.88;;
22234;SDS011;11286;45.596;5.284;2023-02-01T05:24:19;13.98;;;9.07;;
22234;SDS011;11286;45.596;5.284;2023-02-01T05:26:46;11.07;;;9.35;;
22234;SDS011;11286;45.596;5.284;2023-02-01T05:29:12;13.25;;;9.88;;
22234;SDS011;11286;45.596;5.284;2023-02-01T05:31:39;13.82;;;9.55;;
22234;SDS011;11286;45.596;5.284;2023-02-01T05:34:05;13.63;;;9.43;;
22234;SDS011;11286;45.596;5.284;2023-02-01T05:36:31;13.55;;;9.27;;
22234;SDS011;11286;45.596;5.284;2023-02-01T05:38:57;12.02;;;9.07;;
22234;SDS011;11286;45.596;5.284;2023-02-01T05:41:23;14.57;;;9.93;;
22234;SDS011;11286;45.596;5.284;2023-02-01T05:43:48;13.60;;;9.27;;
22234;SDS011;11286;45.596;5.284;2023-02-01T05:46:14;13.27;;;9.57;;
22234;SDS011;11286;45.596;5.284;2023-02-01T05:48:40;15.15;;;9.65;;
22234;SDS011;11286;45.596;5.284;2023-02-01T05:51:06;13.43;;;9.45;;
22234;SDS011;11286;45.596;5.284;2023-02-01T05:53:32;14.68;;;9.60;;
22234;SDS011;11286;45.596;5.284;2023-02-01T05:55:58;13.15;;;9.52;;
22234;SDS011;11286;45.596;5.284;2023-02-01T05:58:24;15.38;;;10.30;;
22234;SDS011;11286;45.596;5.284;2023-02-01T06:00:49;12.20;;;9.05;;
22234;SDS011;11286;45.596;5.284;2023-02-01T06:03:16;13.52;;;8.98;;
22234;SDS011;11286;45.596;5.284;2023-02-01T06:05:45;12.85;;;9.20;;
22234;SDS011;11286;45.596;5.284;2023-02-01T06:08:12;13.38;;;8.88;;
22234;SDS011;11286;45.596;5.284;2023-02-01T06:10:38;13.25;;;9.63;;
22234;SDS011;11286;45.596;5.284;2023-02-01T06:13:04;13.30;;;8.88;;
22234;SDS011;11286;45.596;5.284;2023-02-01T06:15:30;11.93;;;9.40;;
22234;SDS011;11286;45.596;5.284;2023-02-01T06:17:57;11.82;;;8.82;;
22234;SDS011;11286;45.596;5.284;2023-02-01T06:20:22;12.68;;;8.90;;
22234;SDS011;11286;45.596;5.284;2023-02-01T06:22:48;13.73;;;9.80;;
22234;SDS011;11286;45.596;5.284;2023-02-01T06:25:14;15.93;;;10.32;;
22234;SDS011;11286;45.596;5.284;2023-02-01T06:27:40;14.05;;;11.02;;
22234;SDS011;11286;45.596;5.284;2023-02-01T06:30:05;14.45;;;10.20;;
22234;SDS011;11286;45.596;5.284;2023-02-01T06:32:32;13.95;;;9.82;;
22234;SDS011;11286;45.596;5.284;2023-02-01T06:34:58;13.07;;;9.63;;
22234;SDS011;11286;45.596;5.284;2023-02-01T06:37:24;13.98;;;9.80;;
22234;SDS011;11286;45.596;5.284;2023-02-01T06:39:51;12.88;;;10.10;;
22234;SDS011;11286;45.596;5.284;2023-02-01T06:42:16;13.85;;;10.30;;
22234;SDS011;11286;45.596;5.284;2023-02-01T06:44:42;14.65;;;10.57;;
22234;SDS011;11286;45.596;5.284;2023-02-01T06:47:08;15.65;;;10.63;;
22234;SDS011;11286;45.596;5.284;2023-02-01T06:49:34;17.27;;;11.95;;
22234;SDS011;11286;45.596;5.284;2023-02-01T06:51:59;14.63;;;11.50;;
22234;SDS011;11286;45.596;5.284;2023-02-01T06:54:25;15.73;;;11.13;;
22234;SDS011;11286;45.596;5.284;2023-02-01T06:56:52;16.98;;;11.95;;
22234;SDS011;11286;45.596;5.284;2023-02-01T06:59:17;18.70;;;12.88;;
22234;SDS011;11286;45.596;5.284;2023-02-01T07:01:43;20.45;;;14.05;;
22234;SDS011;11286;45.596;5.284;2023-02-01T07:04:09;18.63;;;13.07;;
22234;SDS011;11286;45.596;5.284;2023-02-01T07:06:37;19.95;;;12.82;;
22234;SDS011;11286;45.596;5.284;2023-02-01T07:09:03;17.33;;;11.50;;
22234;SDS011;11286;45.596;5.284;2023-02-01T07:11:28;17.00;;;11.45;;
22234;SDS011;11286;45.596;5.284;2023-02-01T07:13:55;18.48;;;11.48;;
22234;SDS011;11286;45.596;5.284;2023-02-01T07:16:21;16.15;;;11.98;;
22234;SDS011;11286;45.596;5.284;2023-02-01T07:18:47;16.08;;;11.68;;
22234;SDS011;11286;45.596;5.284;2023-02-01T07:21:15;18.58;;;12.30;;
22234;SDS011;11286;45.596;5.284;2023-02-01T07:23:40;17.85;;;11.85;;
22234;SDS011;11286;45.596;5.284;2023-02-01T07:26:06;14.95;;;11.30;;
22234;SDS011;11286;45.596;5.284;2023-02-01T07:28:35;17.05;;;12.88;;
22234;SDS011;11286;45.596;5.284;2023-02-01T07:31:04;23.20;;;16.98;;
22234;SDS011;11286;45.596;5.284;2023-02-01T07:33:31;65.10;;;43.45;;
22234;SDS011;11286;45.596;5.284;2023-02-01T07:35:57;21.40;;;13.98;;
22234;SDS011;11286;45.596;5.284;2023-02-01T07:38:25;20.40;;;14.98;;
22234;SDS011;11286;45.596;5.284;2023-02-01T07:40:51;82.75;;;50.70;;
22234;SDS011;11286;45.596;5.284;2023-02-01T07:43:25;20.80;;;14.55;;
22234;SDS011;11286;45.596;5.284;2023-02-01T07:45:52;19.08;;;13.63;;
22234;SDS011;11286;45.596;5.284;2023-02-01T07:48:19;18.08;;;13.93;;
22234;SDS011;11286;45.596;5.284;2023-02-01T07:50:45;18.02;;;14.30;;
22234;SDS011;11286;45.596;5.284;2023-02-01T07:53:10;18.02;;;12.55;;
22234;SDS011;11286;45.596;5.284;2023-02-01T07:55:39;16.35;;;12.75;;
22234;SDS011;11286;45.596;5.284;2023-02-01T07:58:05;20.00;;;12.18;;
22234;SDS011;11286;45.596;5.284;2023-02-01T08:00:31;21.05;;;13.70;;
22234;SDS011;11286;45.596;5.284;2023-02-01T08:03:26;21.58;;;14.50;;
22234;SDS011;11286;45.596;5.284;2023-02-01T08:05:55;24.73;;;15.70;;
22234;SDS011;11286;45.596;5.284;2023-02-01T08:08:21;21.75;;;14.95;;
22234;SDS011;11286;45.596;5.284;2023-02-01T08:10:47;24.92;;;16.63;;
22234;SDS011;11286;45.596;5.284;2023-02-01T08:13:13;21.67;;;14.88;;
22234;SDS011;11286;45.596;5.284;2023-02-01T08:15:38;20.83;;;14.18;;
22234;SDS011;11286;45.596;5.284;2023-02-01T08:18:04;23.13;;;15.43;;
22234;SDS011;11286;45.596;5.284;2023-02-01T08:20:30;22.20;;;14.50;;
22234;SDS011;11286;45.596;5.284;2023-02-01T08:22:56;23.48;;;14.98;;
22234;SDS011;11286;45.596;5.284;2023-02-01T08:25:22;20.33;;;14.95;;
22234;SDS011;11286;45.596;5.284;2023-02-01T08:27:48;18.58;;;13.02;;
22234;SDS011;11286;45.596;5.284;2023-02-01T08:30:15;16.05;;;11.77;;
22234;SDS011;11286;45.596;5.284;2023-02-01T08:32:41;18.60;;;12.73;;
22234;SDS011;11286;45.596;5.284;2023-02-01T08:35:07;17.08;;;12.32;;
22234;SDS011;11286;45.596;5.284;2023-02-01T08:37:33;17.60;;;12.52;;
22234;SDS011;11286;45.596;5.284;2023-02-01T08:39:59;15.38;;;11.95;;
22234;SDS011;11286;45.596;5.284;2023-02-01T08:42:24;19.63;;;13.52;;
22234;SDS011;11286;45.596;5.284;2023-02-01T08:45:09;17.77;;;13.55;;
22234;SDS011;11286;45.596;5.284;2023-02-01T08:47:35;17.38;;;13.43;;
22234;SDS011;11286;45.596;5.284;2023-02-01T08:50:00;18.05;;;14.52;;
22234;SDS011;11286;45.596;5.284;2023-02-01T08:52:26;15.63;;;13.88;;
22234;SDS011;11286;45.596;5.284;2023-02-01T08:54:52;18.55;;;12.90;;
22234;SDS011;11286;45.596;5.284;2023-02-01T08:57:18;15.43;;;12.68;;
22234;SDS011;11286;45.596;5.284;2023-02-01T08:59:43;15.85;;;12.52;;
22234;SDS011;11286;45.596;5.284;2023-02-01T09:02:13;14.50;;;12.20;;
22234;SDS011;11286;45.596;5.284;2023-02-01T09:04:40;15.80;;;12.02;;
22234;SDS011;11286;45.596;5.284;2023-02-01T09:07:07;16.33;;;12.68;;
22234;SDS011;11286;45.596;5.284;2023-02-01T09:09:34;15.18;;;12.30;;
22234;SDS011;11286;45.596;5.284;2023-02-01T09:12:00;18.08;;;12.02;;
22234;SDS011;11286;45.596;5.284;2023-02-01T09:14:27;13.52;;;11.95;;
22234;SDS011;11286;45.596;5.284;2023-02-01T09:16:53;17.90;;;12.50;;
22234;SDS011;11286;45.596;5.284;2023-02-01T09:19:18;20.42;;;12.65;;
22234;SDS011;11286;45.596;5.284;2023-02-01T09:21:44;16.80;;;11.60;;
22234;SDS011;11286;45.596;5.284;2023-02-01T09:24:10;15.15;;;11.63;;
22234;SDS011;11286;45.596;5.284;2023-02-01T09:26:36;15.40;;;11.07;;
22234;SDS011;11286;45.596;5.284;2023-02-01T09:29:02;15.40;;;10.90;;
22234;SDS011;11286;45.596;5.284;2023-02-01T09:31:31;14.05;;;11.25;;
22234;SDS011;11286;45.596;5.284;2023-02-01T09:33:56;16.40;;;11.82;;
22234;SDS011;11286;45.596;5.284;2023-02-01T09:36:22;16.60;;;12.23;;
22234;SDS011;11286;45.596;5.284;2023-02-01T09:38:49;16.98;;;13.52;;
22234;SDS011;11286;45.596;5.284;2023-02-01T09:42:19;19.63;;;12.88;;
22234;SDS011;11286;45.596;5.284;2023-02-01T09:44:29;14.27;;;10.82;;
22234;SDS011;11286;45.596;5.284;2023-02-01T09:47:19;13.65;;;10.10;;
22234;SDS011;11286;45.596;5.284;2023-02-01T09:50:33;17.45;;;12.68;;
22234;SDS011;11286;45.596;5.284;2023-02-01T09:52:52;14.27;;;10.18;;
22234;SDS011;11286;45.596;5.284;2023-02-01T09:55:39;15.95;;;10.25;;
22234;SDS011;11286;45.596;5.284;2023-02-01T10:00:49;14.15;;;10.32;;
22234;SDS011;11286;45.596;5.284;2023-02-01T10:03:20;14.45;;;9.93;;
22234;SDS011;11286;45.596;5.284;2023-02-01T10:08:40;14.32;;;9.52;;
22234;SDS011;11286;45.596;5.284;2023-02-01T10:11:37;13.63;;;9.43;;
22234;SDS011;11286;45.596;5.284;2023-02-01T10:17:16;13.20;;;9.30;;
22234;SDS011;11286;45.596;5.284;2023-02-01T10:22:55;13.55;;;9.40;;
22234;SDS011;11286;45.596;5.284;2023-02-01T10:25:35;12.23;;;9.18;;
22234;SDS011;11286;45.596;5.284;2023-02-01T10:28:22;11.63;;;9.10;;
22234;SDS011;11286;45.596;5.284;2023-02-01T10:30:50;14.25;;;10.65;;
22234;SDS011;11286;45.596;5.284;2023-02-01T10:33:27;14.88;;;9.75;;
22234;SDS011;11286;45.596;5.284;2023-02-01T10:36:16;15.68;;;10.05;;
22234;SDS011;11286;45.596;5.284;2023-02-01T10:39:10;14.73;;;9.20;;
22234;SDS011;11286;45.596;5.284;2023-02-01T10:41:39;14.40;;;9.40;;
22234;SDS011;11286;45.596;5.284;2023-02-01T10:44:10;13.13;;;9.40;;
22234;SDS011;11286;45.596;5.284;2023-02-01T10:46:39;14.32;;;9.75;;
22234;SDS011;11286;45.596;5.284;2023-02-01T10:49:08;67.88;;;31.65;;
22234;SDS011;11286;45.596;5.284;2023-02-01T10:51:50;12.43;;;8.95;;
22234;SDS011;11286;45.596;5.284;2023-02-01T10:54:36;18.52;;;11.50;;
22234;SDS011;11286;45.596;5.284;2023-02-01T10:57:09;17.17;;;9.75;;
22234;SDS011;11286;45.596;5.284;2023-02-01T10:59:46;12.32;;;8.43;;
22234;SDS011;11286;45.596;5.284;2023-02-01T11:02:34;11.38;;;7.70;;
22234;SDS011;11286;45.596;5.284;2023-02-01T11:05:00;13.68;;;8.38;;
22234;SDS011;11286;45.596;5.284;2023-02-01T11:07:28;13.23;;;8.10;;
22234;SDS011;11286;45.596;5.284;2023-02-01T11:09:55;10.90;;;7.03;;
22234;SDS011;11286;45.596;5.284;2023-02-01T11:12:33;14.68;;;7.18;;
22234;SDS011;11286;45.596;5.284;2023-02-01T11:17:40;11.88;;;6.50;;
22234;SDS011;11286;45.596;5.284;2023-02-01T11:20:15;10.13;;;5.35;;
22234;SDS011;11286;45.596;5.284;2023-02-01T11:22:46;29.42;;;17.17;;
22234;SDS011;11286;45.596;5.284;2023-02-01T11:25:14;9.35;;;5.25;;
22234;SDS011;11286;45.596;5.284;2023-02-01T11:27:42;8.10;;;4.50;;
22234;SDS011;11286;45.596;5.284;2023-02-01T11:30:13;11.52;;;6.88;;
22234;SDS011;11286;45.596;5.284;2023-02-01T11:32:47;9.95;;;5.22;;
22234;SDS011;11286;45.596;5.284;2023-02-01T11:35:18;9.13;;;5.20;;
22234;SDS011;11286;45.596;5.284;2023-02-01T11:37:48;8.55;;;4.28;;
22234;SDS011;11286;45.596;5.284;2023-02-01T11:42:59;8.43;;;4.60;;
22234;SDS011;11286;45.596;5.284;2023-02-01T11:47:54;8.57;;;5.47;;
22234;SDS011;11286;45.596;5.284;2023-02-01T11:50:44;8.52;;;4.97;;
22234;SDS011;11286;45.596;5.284;2023-02-01T11:53:14;6.03;;;4.20;;
22234;SDS011;11286;45.596;5.284;2023-02-01T11:55:53;6.47;;;4.18;;
22234;SDS011;11286;45.596;5.284;2023-02-01T11:58:31;6.63;;;5.20;;
22234;SDS011;11286;45.596;5.284;2023-02-01T12:04:05;6.40;;;4.32;;
22234;SDS011;11286;45.596;5.284;2023-02-01T12:25:44;8.27;;;5.97;;
22234;SDS011;11286;45.596;5.284;2023-02-01T12:44:16;13.07;;;9.15;;
22234;SDS011;11286;45.596;5.284;2023-02-01T12:46:50;10.50;;;5.47;;
22234;SDS011;11286;45.596;5.284;2023-02-01T12:49:22;15.98;;;9.55;;
22234;SDS011;11286;45.596;5.284;2023-02-01T12:52:18;17.88;;;12.98;;
22234;SDS011;11286;45.596;5.284;2023-02-01T12:58:14;28.52;;;18.67;;
22234;SDS011;11286;45.596;5.284;2023-02-01T13:00:49;9.13;;;4.82;;
22234;SDS011;11286;45.596;5.284;2023-02-01T13:11:46;27.77;;;20.00;;
22234;SDS011;11286;45.596;5.284;2023-02-01T13:17:02;10.77;;;4.72;;
22234;SDS011;11286;45.596;5.284;2023-02-01T13:19:41;7.13;;;3.13;;
22234;SDS011;11286;45.596;5.284;2023-02-01T13:22:23;6.53;;;3.78;;
22234;SDS011;11286;45.596;5.284;2023-02-01T13:24:56;9.73;;;5.68;;
22234;SDS011;11286;45.596;5.284;2023-02-01T13:27:30;13.98;;;6.43;;
22234;SDS011;11286;45.596;5.284;2023-02-01T13:29:58;7.85;;;4.22;;
22234;SDS011;11286;45.596;5.284;2023-02-01T13:43:23;7.30;;;3.60;;
22234;SDS011;11286;45.596;5.284;2023-02-01T13:45:53;3.67;;;2.65;;
22234;SDS011;11286;45.596;5.284;2023-02-01T13:48:27;6.50;;;3.08;;
22234;SDS011;11286;45.596;5.284;2023-02-01T13:51:06;9.00;;;4.03;;
22234;SDS011;11286;45.596;5.284;2023-02-01T13:53:36;6.38;;;3.38;;
22234;SDS011;11286;45.596;5.284;2023-02-01T13:56:12;8.15;;;4.57;;
22234;SDS011;11286;45.596;5.284;2023-02-01T13:58:41;10.88;;;4.35;;
22234;SDS011;11286;45.596;5.284;2023-02-01T14:03:47;8.20;;;4.45;;
22234;SDS011;11286;45.596;5.284;2023-02-01T14:16:43;6.15;;;2.80;;
22234;SDS011;11286;45.596;5.284;2023-02-01T14:19:29;6.00;;;3.03;;
22234;SDS011;11286;45.596;5.284;2023-02-01T14:21:58;10.93;;;3.53;;
22234;SDS011;11286;45.596;5.284;2023-02-01T14:27:37;8.00;;;3.35;;
22234;SDS011;11286;45.596;5.284;2023-02-01T14:29:38;10.10;;;4.75;;
22234;SDS011;11286;45.596;5.284;2023-02-01T14:32:17;6.25;;;3.63;;
22234;SDS011;11286;45.596;5.284;2023-02-01T14:44:51;3.90;;;2.88;;
22234;SDS011;11286;45.596;5.284;2023-02-01T14:52:42;10.30;;;6.53;;
22234;SDS011;11286;45.596;5.284;2023-02-01T14:55:19;6.63;;;5.10;;
22234;SDS011;11286;45.596;5.284;2023-02-01T14:57:50;6.93;;;4.43;;
22234;SDS011;11286;45.596;5.284;2023-02-01T15:02:50;6.90;;;4.72;;
22234;SDS011;11286;45.596;5.284;2023-02-01T15:05:22;4.05;;;3.38;;
22234;SDS011;11286;45.596;5.284;2023-02-01T15:08:23;6.05;;;3.72;;
22234;SDS011;11286;45.596;5.284;2023-02-01T15:10:48;4.93;;;3.55;;
22234;SDS011;11286;45.596;5.284;2023-02-01T15:13:21;7.25;;;4.00;;
22234;SDS011;11286;45.596;5.284;2023-02-01T15:18:37;5.10;;;3.45;;
22234;SDS011;11286;45.596;5.284;2023-02-01T15:21:03;6.85;;;4.72;;
22234;SDS011;11286;45.596;5.284;2023-02-01T15:23:30;5.25;;;3.83;;
22234;SDS011;11286;45.596;5.284;2023-02-01T15:25:56;8.38;;;5.25;;
22234;SDS011;11286;45.596;5.284;2023-02-01T15:28:24;8.20;;;4.93;;
22234;SDS011;11286;45.596;5.284;2023-02-01T15:33:24;6.82;;;5.40;;
22234;SDS011;11286;45.596;5.284;2023-02-01T15:36:07;8.73;;;5.80;;
22234;SDS011;11286;45.596;5.284;2023-02-01T15:41:03;11.43;;;7.00;;
22234;SDS011;11286;45.596;5.284;2023-02-01T15:43:31;8.05;;;5.50;;
22234;SDS011;11286;45.596;5.284;2023-02-01T15:46:01;6.78;;;4.30;;
22234;SDS011;11286;45.596;5.284;2023-02-01T15:48:39;6.55;;;3.88;;
22234;SDS011;11286;45.596;5.284;2023-02-01T15:51:15;4.82;;;4.00;;
22234;SDS011;11286;45.596;5.284;2023-02-01T15:53:58;4.95;;;3.38;;
22234;SDS011;11286;45.596;5.284;2023-02-01T15:56:29;8.73;;;4.57;;
22234;SDS011;11286;45.596;5.284;2023-02-01T15:59:00;5.57;;;4.60;;
22234;SDS011;11286;45.596;5.284;2023-02-01T16:01:29;13.00;;;8.05;;
22234;SDS011;11286;45.596;5.284;2023-02-01T16:06:46;5.38;;;3.60;;
22234;SDS011;11286;45.596;5.284;2023-02-01T16:09:15;6.90;;;4.30;;
22234;SDS011;11286;45.596;5.284;2023-02-01T16:11:58;13.15;;;8.75;;
22234;SDS011;11286;45.596;5.284;2023-02-01T16:14:25;63.15;;;29.60;;
22234;SDS011;11286;45.596;5.284;2023-02-01T16:16:52;47.13;;;22.20;;
22234;SDS011;11286;45.596;5.284;2023-02-01T16:19:19;157.13;;;65.88;;
22234;SDS011;11286;45.596;5.284;2023-02-01T16:21:46;159.18;;;66.38;;
22234;SDS011;11286;45.596;5.284;2023-02-01T16:24:11;15.40;;;9.18;;
22234;SDS011;11286;45.596;5.284;2023-02-01T16:26:37;81.18;;;37.58;;
22234;SDS011;11286;45.596;5.284;2023-02-01T16:29:03;109.93;;;47.65;;
22234;SDS011;11286;45.596;5.284;2023-02-01T16:31:32;124.50;;;61.97;;
22234;SDS011;11286;45.596;5.284;2023-02-01T16:34:03;30.95;;;24.88;;
22234;SDS011;11286;45.596;5.284;2023-02-01T16:36:30;52.03;;;46.58;;
22234;SDS011;11286;45.596;5.284;2023-02-01T16:38:56;13.50;;;7.85;;
22234;SDS011;11286;45.596;5.284;2023-02-01T16:41:22;49.47;;;29.88;;
22234;SDS011;11286;45.596;5.284;2023-02-01T16:43:49;113.78;;;65.78;;
22234;SDS011;11286;45.596;5.284;2023-02-01T16:46:17;177.50;;;95.63;;
22234;SDS011;11286;45.596;5.284;2023-02-01T16:48:48;194.50;;;104.13;;
22234;SDS011;11286;45.596;5.284;2023-02-01T16:51:22;129.65;;;80.93;;
22234;SDS011;11286;45.596;5.284;2023-02-01T16:53:50;136.23;;;74.72;;
22234;SDS011;11286;45.596;5.284;2023-02-01T16:56:18;46.80;;;28.52;;
22234;SDS011;11286;45.596;5.284;2023-02-01T16:58:45;34.88;;;20.40;;
22234;SDS011;11286;45.596;5.284;2023-02-01T17:01:12;155.75;;;91.07;;
22234;SDS011;11286;45.596;5.284;2023-02-01T17:03:39;60.85;;;39.90;;
22234;SDS011;11286;45.596;5.284;2023-02-01T17:06:05;41.45;;;29.20;;
22234;SDS011;11286;45.596;5.284;2023-02-01T17:08:35;13.43;;;9.82;;
22234;SDS011;11286;45.596;5.284;2023-02-01T17:11:04;66.05;;;45.05;;
22234;SDS011;11286;45.596;5.284;2023-02-01T17:13:30;34.60;;;23.83;;
22234;SDS011;11286;45.596;5.284;2023-02-01T17:16:01;20.38;;;13.95;;
22234;SDS011;11286;45.596;5.284;2023-02-01T17:18:29;15.05;;;12.00;;
22234;SDS011;11286;45.596;5.284;2023-02-01T17:20:58;14.30;;;12.77;;
22234;SDS011;11286;45.596;5.284;2023-02-01T17:23:25;11.98;;;9.43;;
22234;SDS011;11286;45.596;5.284;2023-02-01T17:25:51;11.82;;;9.20;;
22234;SDS011;11286;45.596;5.284;2023-02-01T17:28:17;16.05;;;12.85;;